sensor_id;sensor_type;location;lat;lon;timestamp;temperature;humidity
10304;DHT22;5197;48.152;8.590;2022-08-05T00:00:13;23.50;1.00
10304;DHT22;5197;48.152;8.590;2022-08-05T00:02:42;23.50;1.00
10304;DHT22;5197;48.152;8.590;2022-08-05T00:05:19;23.50;1.00
10304;DHT22;5197;48.152;8.590;2022-08-05T00:08:06;23.40;1.00
10304;DHT22;5197;48.152;8.590;2022-08-05T00:10:56;23.30;1.00
10304;DHT22;5197;48.152;8.590;2022-08-05T00:13:30;23.30;1.00
10304;DHT22;5197;48.152;8.590;2022-08-05T00:16:07;23.30;1.00
10304;DHT22;5197;48.152;8.590;2022-08-05T00:18:40;23.20;1.00
10304;DHT22;5197;48.152;8.590;2022-08-05T00:21:10;23.20;1.00
10304;DHT22;5197;48.152;8.590;2022-08-05T00:23:42;23.10;1.00
10304;DHT22;5197;48.152;8.590;2022-08-05T00:26:14;23.10;1.00
10304;DHT22;5197;48.152;8.590;2022-08-05T00:28:42;23.00;1.00
10304;DHT22;5197;48.152;8.590;2022-08-05T00:31:11;22.90;1.00
10304;DHT22;5197;48.152;8.590;2022-08-05T00:33:39;22.80;1.00
10304;DHT22;5197;48.152;8.590;2022-08-05T00:36:26;22.70;1.00
10304;DHT22;5197;48.152;8.590;2022-08-05T00:39:13;22.50;1.00
10304;DHT22;5197;48.152;8.590;2022-08-05T00:41:44;22.40;1.00
10304;DHT22;5197;48.152;8.590;2022-08-05T00:44:24;22.30;1.00
10304;DHT22;5197;48.152;8.590;2022-08-05T00:46:57;22.20;1.00
10304;DHT22;5197;48.152;8.590;2022-08-05T00:49:30;22.30;1.00
10304;DHT22;5197;48.152;8.590;2022-08-05T00:52:16;22.30;1.00
10304;DHT22;5197;48.152;8.590;2022-08-05T00:54:54;22.10;1.00
10304;DHT22;5197;48.152;8.590;2022-08-05T00:57:22;22.00;1.00
10304;DHT22;5197;48.152;8.590;2022-08-05T01:00:05;21.90;1.00
10304;DHT22;5197;48.152;8.590;2022-08-05T01:02:36;21.90;1.00
10304;DHT22;5197;48.152;8.590;2022-08-05T01:05:04;21.90;1.00
10304;DHT22;5197;48.152;8.590;2022-08-05T01:07:35;21.90;1.00
10304;DHT22;5197;48.152;8.590;2022-08-05T01:10:36;21.90;1.00
10304;DHT22;5197;48.152;8.590;2022-08-05T01:13:12;21.80;1.00
10304;DHT22;5197;48.152;8.590;2022-08-05T01:15:57;21.80;1.00
10304;DHT22;5197;48.152;8.590;2022-08-05T01:18:30;21.90;1.00
10304;DHT22;5197;48.152;8.590;2022-08-05T01:29:55;21.70;1.00
10304;DHT22;5197;48.152;8.590;2022-08-05T01:32:26;21.60;1.00
10304;DHT22;5197;48.152;8.590;2022-08-05T01:35:02;23.60;1.00
10304;DHT22;5197;48.152;8.590;2022-08-05T01:37:55;21.70;1.00
10304;DHT22;5197;48.152;8.590;2022-08-05T01:40:28;21.70;1.00
10304;DHT22;5197;48.152;8.590;2022-08-05T01:42:59;21.70;1.00
10304;DHT22;5197;48.152;8.590;2022-08-05T01:45:29;21.70;1.00
10304;DHT22;5197;48.152;8.590;2022-08-05T01:48:01;21.70;1.00
10304;DHT22;5197;48.152;8.590;2022-08-05T01:50:38;21.80;1.00
10304;DHT22;5197;48.152;8.590;2022-08-05T01:53:19;21.80;1.00
10304;DHT22;5197;48.152;8.590;2022-08-05T01:56:08;21.80;1.00
10304;DHT22;5197;48.152;8.590;2022-08-05T01:58:38;21.70;1.00
10304;DHT22;5197;48.152;8.590;2022-08-05T02:01:12;21.70;1.00
10304;DHT22;5197;48.152;8.590;2022-08-05T02:03:48;21.60;1.00
10304;DHT22;5197;48.152;8.590;2022-08-05T02:06:17;21.60;1.00
10304;DHT22;5197;48.152;8.590;2022-08-05T02:09:04;21.60;1.00
10304;DHT22;5197;48.152;8.590;2022-08-05T02:14:33;21.60;1.00
10304;DHT22;5197;48.152;8.590;2022-08-05T02:17:06;21.50;1.00
10304;DHT22;5197;48.152;8.590;2022-08-05T02:19:59;21.60;1.00
10304;DHT22;5197;48.152;8.590;2022-08-05T02:22:34;21.50;1.00
10304;DHT22;5197;48.152;8.590;2022-08-05T02:25:24;21.60;1.00
10304;DHT22;5197;48.152;8.590;2022-08-05T02:27:59;21.60;1.00
10304;DHT22;5197;48.152;8.590;2022-08-05T02:30:43;21.60;1.00
10304;DHT22;5197;48.152;8.590;2022-08-05T02:33:20;21.70;1.00
10304;DHT22;5197;48.152;8.590;2022-08-05T02:36:02;21.70;1.00
10304;DHT22;5197;48.152;8.590;2022-08-05T02:38:31;21.70;1.00
10304;DHT22;5197;48.152;8.590;2022-08-05T02:41:02;21.60;1.00
10304;DHT22;5197;48.152;8.590;2022-08-05T02:43:45;21.70;1.00
10304;DHT22;5197;48.152;8.590;2022-08-05T02:46:35;21.70;1.00
10304;DHT22;5197;48.152;8.590;2022-08-05T02:49:31;21.70;1.00
10304;DHT22;5197;48.152;8.590;2022-08-05T02:52:05;21.70;1.00
10304;DHT22;5197;48.152;8.590;2022-08-05T02:54:35;21.70;1.00
10304;DHT22;5197;48.152;8.590;2022-08-05T02:57:14;21.70;1.00
10304;DHT22;5197;48.152;8.590;2022-08-05T03:00:02;21.70;1.00
10304;DHT22;5197;48.152;8.590;2022-08-05T03:02:33;21.70;1.00
10304;DHT22;5197;48.152;8.590;2022-08-05T03:05:03;21.70;1.00
10304;DHT22;5197;48.152;8.590;2022-08-05T03:07:31;21.70;1.00
10304;DHT22;5197;48.152;8.590;2022-08-05T03:10:19;21.70;1.00
10304;DHT22;5197;48.152;8.590;2022-08-05T03:12:51;21.70;1.00
10304;DHT22;5197;48.152;8.590;2022-08-05T03:15:19;21.70;1.00
10304;DHT22;5197;48.152;8.590;2022-08-05T03:17:51;21.60;1.00
10304;DHT22;5197;48.152;8.590;2022-08-05T03:20:21;21.50;1.00
10304;DHT22;5197;48.152;8.590;2022-08-05T03:22:50;21.50;1.00
10304;DHT22;5197;48.152;8.590;2022-08-05T03:25:19;21.40;1.00
10304;DHT22;5197;48.152;8.590;2022-08-05T03:28:09;21.40;1.00
10304;DHT22;5197;48.152;8.590;2022-08-05T03:30:40;21.40;1.00
10304;DHT22;5197;48.152;8.590;2022-08-05T03:33:08;21.40;1.00
10304;DHT22;5197;48.152;8.590;2022-08-05T03:35:36;21.50;1.00
10304;DHT22;5197;48.152;8.590;2022-08-05T03:38:11;21.40;1.00
10304;DHT22;5197;48.152;8.590;2022-08-05T03:40:45;21.40;1.00
10304;DHT22;5197;48.152;8.590;2022-08-05T03:43:15;21.40;1.00
10304;DHT22;5197;48.152;8.590;2022-08-05T03:46:03;21.30;1.00
10304;DHT22;5197;48.152;8.590;2022-08-05T03:48:30;21.30;1.00
10304;DHT22;5197;48.152;8.590;2022-08-05T03:51:07;21.30;1.00
10304;DHT22;5197;48.152;8.590;2022-08-05T03:57:12;21.00;1.00
10304;DHT22;5197;48.152;8.590;2022-08-05T03:59:48;20.80;1.00
10304;DHT22;5197;48.152;8.590;2022-08-05T04:02:23;20.80;1.00
10304;DHT22;5197;48.152;8.590;2022-08-05T04:05:06;20.80;1.00
10304;DHT22;5197;48.152;8.590;2022-08-05T04:07:39;20.70;1.00
10304;DHT22;5197;48.152;8.590;2022-08-05T04:10:28;20.70;1.00
10304;DHT22;5197;48.152;8.590;2022-08-05T04:13:05;20.70;1.00
10304;DHT22;5197;48.152;8.590;2022-08-05T04:15:32;20.60;1.00
10304;DHT22;5197;48.152;8.590;2022-08-05T04:18:05;20.60;1.00
10304;DHT22;5197;48.152;8.590;2022-08-05T04:20:36;20.50;1.00
10304;DHT22;5197;48.152;8.590;2022-08-05T04:23:03;20.30;1.00
10304;DHT22;5197;48.152;8.590;2022-08-05T04:25:30;20.10;1.00
10304;DHT22;5197;48.152;8.590;2022-08-05T04:28:18;20.10;1.00
10304;DHT22;5197;48.152;8.590;2022-08-05T04:30:56;20.10;1.00
10304;DHT22;5197;48.152;8.590;2022-08-05T04:33:27;20.00;1.00
10304;DHT22;5197;48.152;8.590;2022-08-05T04:36:14;20.00;1.00
10304;DHT22;5197;48.152;8.590;2022-08-05T04:39:02;20.00;1.00
10304;DHT22;5197;48.152;8.590;2022-08-05T04:41:31;19.90;1.00
10304;DHT22;5197;48.152;8.590;2022-08-05T04:44:05;19.90;1.00
10304;DHT22;5197;48.152;8.590;2022-08-05T04:46:38;19.90;1.00
10304;DHT22;5197;48.152;8.590;2022-08-05T04:49:06;19.90;1.00
10304;DHT22;5197;48.152;8.590;2022-08-05T04:51:41;20.00;1.00
10304;DHT22;5197;48.152;8.590;2022-08-05T04:54:09;20.00;1.00
10304;DHT22;5197;48.152;8.590;2022-08-05T04:56:38;20.10;1.00
10304;DHT22;5197;48.152;8.590;2022-08-05T04:59:06;20.10;1.00
10304;DHT22;5197;48.152;8.590;2022-08-05T05:01:52;20.10;1.00
10304;DHT22;5197;48.152;8.590;2022-08-05T05:04:40;20.20;1.00
10304;DHT22;5197;48.152;8.590;2022-08-05T05:07:16;20.20;1.00
10304;DHT22;5197;48.152;8.590;2022-08-05T05:09:44;20.30;1.00
10304;DHT22;5197;48.152;8.590;2022-08-05T05:12:11;20.40;1.00
10304;DHT22;5197;48.152;8.590;2022-08-05T05:14:38;20.50;1.00
10304;DHT22;5197;48.152;8.590;2022-08-05T05:17:17;20.70;1.00
10304;DHT22;5197;48.152;8.590;2022-08-05T05:19:52;20.90;1.00
10304;DHT22;5197;48.152;8.590;2022-08-05T05:22:23;21.20;1.00
10304;DHT22;5197;48.152;8.590;2022-08-05T05:24:55;21.40;1.00
10304;DHT22;5197;48.152;8.590;2022-08-05T05:27:31;21.50;1.00
10304;DHT22;5197;48.152;8.590;2022-08-05T05:30:14;21.60;1.00
10304;DHT22;5197;48.152;8.590;2022-08-05T05:33:00;21.70;1.00
10304;DHT22;5197;48.152;8.590;2022-08-05T05:35:44;21.80;1.00
10304;DHT22;5197;48.152;8.590;2022-08-05T05:38:15;21.90;1.00
10304;DHT22;5197;48.152;8.590;2022-08-05T05:40:54;22.00;1.00
10304;DHT22;5197;48.152;8.590;2022-08-05T05:43:22;22.10;1.00
10304;DHT22;5197;48.152;8.590;2022-08-05T05:46:10;22.20;1.00
10304;DHT22;5197;48.152;8.590;2022-08-05T05:48:43;22.20;1.00
10304;DHT22;5197;48.152;8.590;2022-08-05T05:51:23;22.20;1.00
10304;DHT22;5197;48.152;8.590;2022-08-05T05:53:54;22.20;1.00
10304;DHT22;5197;48.152;8.590;2022-08-05T05:56:29;22.20;1.00
10304;DHT22;5197;48.152;8.590;2022-08-05T05:59:02;22.30;1.00
10304;DHT22;5197;48.152;8.590;2022-08-05T06:01:33;22.30;1.00
10304;DHT22;5197;48.152;8.590;2022-08-05T06:04:13;22.50;1.00
10304;DHT22;5197;48.152;8.590;2022-08-05T06:06:42;22.60;1.00
10304;DHT22;5197;48.152;8.590;2022-08-05T06:09:15;22.70;1.00
10304;DHT22;5197;48.152;8.590;2022-08-05T06:12:02;22.90;1.00
10304;DHT22;5197;48.152;8.590;2022-08-05T06:14:30;23.00;1.00
10304;DHT22;5197;48.152;8.590;2022-08-05T06:16:57;23.10;1.00
10304;DHT22;5197;48.152;8.590;2022-08-05T06:19:27;23.20;1.00
10304;DHT22;5197;48.152;8.590;2022-08-05T06:22:04;23.30;1.00
10304;DHT22;5197;48.152;8.590;2022-08-05T06:24:33;23.40;1.00
10304;DHT22;5197;48.152;8.590;2022-08-05T06:27:02;23.60;1.00
10304;DHT22;5197;48.152;8.590;2022-08-05T06:29:30;23.80;1.00
10304;DHT22;5197;48.152;8.590;2022-08-05T06:32:17;23.70;1.00
10304;DHT22;5197;48.152;8.590;2022-08-05T06:34:53;23.70;1.00
10304;DHT22;5197;48.152;8.590;2022-08-05T06:37:24;23.90;1.00
10304;DHT22;5197;48.152;8.590;2022-08-05T06:40:13;24.10;1.00
10304;DHT22;5197;48.152;8.590;2022-08-05T06:42:47;24.00;1.00
10304;DHT22;5197;48.152;8.590;2022-08-05T06:45:20;23.90;1.00
10304;DHT22;5197;48.152;8.590;2022-08-05T06:48:08;24.00;1.00
10304;DHT22;5197;48.152;8.590;2022-08-05T06:50:55;24.10;1.00
10304;DHT22;5197;48.152;8.590;2022-08-05T06:53:22;24.50;1.00
10304;DHT22;5197;48.152;8.590;2022-08-05T06:55:56;24.70;1.00
10304;DHT22;5197;48.152;8.590;2022-08-05T06:58:25;25.00;1.00
10304;DHT22;5197;48.152;8.590;2022-08-05T07:01:03;25.00;1.00
10304;DHT22;5197;48.152;8.590;2022-08-05T07:03:31;25.10;1.00
10304;DHT22;5197;48.152;8.590;2022-08-05T07:06:00;25.20;1.00
10304;DHT22;5197;48.152;8.590;2022-08-05T07:08:40;25.30;1.00
10304;DHT22;5197;48.152;8.590;2022-08-05T07:11:09;25.40;1.00
10304;DHT22;5197;48.152;8.590;2022-08-05T07:13:42;25.40;1.00
10304;DHT22;5197;48.152;8.590;2022-08-05T07:16:28;25.30;1.00
10304;DHT22;5197;48.152;8.590;2022-08-05T07:19:34;25.00;1.00
10304;DHT22;5197;48.152;8.590;2022-08-05T07:22:21;24.60;1.00
10304;DHT22;5197;48.152;8.590;2022-08-05T07:25:05;24.20;1.00
10304;DHT22;5197;48.152;8.590;2022-08-05T07:27:53;24.10;1.00
10304;DHT22;5197;48.152;8.590;2022-08-05T07:30:26;24.00;1.00
10304;DHT22;5197;48.152;8.590;2022-08-05T07:33:00;24.00;1.00
10304;DHT22;5197;48.152;8.590;2022-08-05T07:35:39;24.00;1.00
10304;DHT22;5197;48.152;8.590;2022-08-05T07:38:28;23.90;1.00
10304;DHT22;5197;48.152;8.590;2022-08-05T07:41:14;23.70;1.00
10304;DHT22;5197;48.152;8.590;2022-08-05T07:44:04;24.30;1.00
10304;DHT22;5197;48.152;8.590;2022-08-05T07:46:40;24.50;1.00
10304;DHT22;5197;48.152;8.590;2022-08-05T07:49:14;24.50;1.00
10304;DHT22;5197;48.152;8.590;2022-08-05T07:51:41;24.50;1.00
10304;DHT22;5197;48.152;8.590;2022-08-05T07:54:21;24.40;1.00
10304;DHT22;5197;48.152;8.590;2022-08-05T07:57:03;24.30;1.00
10304;DHT22;5197;48.152;8.590;2022-08-05T07:59:53;24.30;1.00
10304;DHT22;5197;48.152;8.590;2022-08-05T08:02:25;24.20;1.00
10304;DHT22;5197;48.152;8.590;2022-08-05T08:05:14;24.30;1.00
10304;DHT22;5197;48.152;8.590;2022-08-05T08:07:43;24.30;1.00
10304;DHT22;5197;48.152;8.590;2022-08-05T08:10:26;24.40;1.00
10304;DHT22;5197;48.152;8.590;2022-08-05T08:12:55;24.50;1.00
10304;DHT22;5197;48.152;8.590;2022-08-05T08:15:24;24.50;1.00
10304;DHT22;5197;48.152;8.590;2022-08-05T08:18:11;24.60;1.00
10304;DHT22;5197;48.152;8.590;2022-08-05T08:20:40;24.60;1.00
10304;DHT22;5197;48.152;8.590;2022-08-05T08:23:26;24.80;1.00
10304;DHT22;5197;48.152;8.590;2022-08-05T08:26:13;25.20;1.00
10304;DHT22;5197;48.152;8.590;2022-08-05T08:28:40;25.40;1.00
10304;DHT22;5197;48.152;8.590;2022-08-05T08:31:25;25.50;1.00
10304;DHT22;5197;48.152;8.590;2022-08-05T08:33:52;25.30;1.00
10304;DHT22;5197;48.152;8.590;2022-08-05T08:36:19;25.30;1.00
10304;DHT22;5197;48.152;8.590;2022-08-05T08:39:07;25.30;1.00
10304;DHT22;5197;48.152;8.590;2022-08-05T08:41:43;25.30;1.00
10304;DHT22;5197;48.152;8.590;2022-08-05T08:44:28;25.30;1.00
10304;DHT22;5197;48.152;8.590;2022-08-05T08:47:18;25.40;1.00
10304;DHT22;5197;48.152;8.590;2022-08-05T08:50:10;25.40;1.00
10304;DHT22;5197;48.152;8.590;2022-08-05T08:53:03;25.40;1.00
10304;DHT22;5197;48.152;8.590;2022-08-05T08:55:38;25.50;1.00
10304;DHT22;5197;48.152;8.590;2022-08-05T08:58:25;25.50;1.00
10304;DHT22;5197;48.152;8.590;2022-08-05T09:01:10;25.50;1.00
10304;DHT22;5197;48.152;8.590;2022-08-05T09:03:45;25.70;1.00
10304;DHT22;5197;48.152;8.590;2022-08-05T09:06:18;26.00;1.00
10304;DHT22;5197;48.152;8.590;2022-08-05T09:08:54;26.00;1.00
10304;DHT22;5197;48.152;8.590;2022-08-05T09:11:21;26.20;1.00
10304;DHT22;5197;48.152;8.590;2022-08-05T09:14:10;26.40;1.00
10304;DHT22;5197;48.152;8.590;2022-08-05T09:16:59;26.60;1.00
10304;DHT22;5197;48.152;8.590;2022-08-05T09:19:26;26.80;1.00
10304;DHT22;5197;48.152;8.590;2022-08-05T09:22:13;27.00;1.00
10304;DHT22;5197;48.152;8.590;2022-08-05T09:25:01;27.10;1.00
10304;DHT22;5197;48.152;8.590;2022-08-05T09:27:49;27.10;1.00
10304;DHT22;5197;48.152;8.590;2022-08-05T09:30:33;27.10;1.00
10304;DHT22;5197;48.152;8.590;2022-08-05T09:33:00;27.40;1.00
10304;DHT22;5197;48.152;8.590;2022-08-05T09:35:28;27.60;1.00
10304;DHT22;5197;48.152;8.590;2022-08-05T09:37:56;27.70;1.00
10304;DHT22;5197;48.152;8.590;2022-08-05T09:40:44;27.90;1.00
10304;DHT22;5197;48.152;8.590;2022-08-05T09:43:26;27.90;1.00
10304;DHT22;5197;48.152;8.590;2022-08-05T09:46:23;28.00;1.00
10304;DHT22;5197;48.152;8.590;2022-08-05T09:48:57;28.00;1.00
10304;DHT22;5197;48.152;8.590;2022-08-05T09:51:44;28.10;1.00
10304;DHT22;5197;48.152;8.590;2022-08-05T09:54:16;28.00;1.00
10304;DHT22;5197;48.152;8.590;2022-08-05T09:56:54;28.00;1.00
10304;DHT22;5197;48.152;8.590;2022-08-05T09:59:23;27.90;1.00
10304;DHT22;5197;48.152;8.590;2022-08-05T10:01:56;27.70;1.00
10304;DHT22;5197;48.152;8.590;2022-08-05T10:04:34;27.60;1.00
10304;DHT22;5197;48.152;8.590;2022-08-05T10:07:04;27.70;1.00
10304;DHT22;5197;48.152;8.590;2022-08-05T10:09:54;28.00;1.00
10304;DHT22;5197;48.152;8.590;2022-08-05T10:12:47;28.40;1.00
10304;DHT22;5197;48.152;8.590;2022-08-05T10:18:16;28.60;1.00
10304;DHT22;5197;48.152;8.590;2022-08-05T10:20:48;28.80;1.00
10304;DHT22;5197;48.152;8.590;2022-08-05T10:23:18;28.70;1.00
10304;DHT22;5197;48.152;8.590;2022-08-05T10:26:08;28.70;1.00
10304;DHT22;5197;48.152;8.590;2022-08-05T10:28:41;28.50;1.00
10304;DHT22;5197;48.152;8.590;2022-08-05T10:31:15;28.60;1.00
10304;DHT22;5197;48.152;8.590;2022-08-05T10:34:02;28.70;1.00
10304;DHT22;5197;48.152;8.590;2022-08-05T10:36:35;29.00;1.00
10304;DHT22;5197;48.152;8.590;2022-08-05T10:39:31;29.10;1.00
10304;DHT22;5197;48.152;8.590;2022-08-05T10:42:22;29.20;1.00
10304;DHT22;5197;48.152;8.590;2022-08-05T10:45:00;29.40;1.00
10304;DHT22;5197;48.152;8.590;2022-08-05T10:47:47;29.50;1.00
10304;DHT22;5197;48.152;8.590;2022-08-05T10:56:23;29.70;1.00
10304;DHT22;5197;48.152;8.590;2022-08-05T11:01:33;29.60;1.00
10304;DHT22;5197;48.152;8.590;2022-08-05T11:04:21;29.70;1.00
10304;DHT22;5197;48.152;8.590;2022-08-05T11:09:51;29.80;1.00
10304;DHT22;5197;48.152;8.590;2022-08-05T11:15:36;29.50;1.00
10304;DHT22;5197;48.152;8.590;2022-08-05T11:18:28;29.40;1.00
10304;DHT22;5197;48.152;8.590;2022-08-05T11:21:00;29.40;1.00
10304;DHT22;5197;48.152;8.590;2022-08-05T11:23:52;29.80;1.00
10304;DHT22;5197;48.152;8.590;2022-08-05T11:26:39;30.00;1.00
10304;DHT22;5197;48.152;8.590;2022-08-05T11:29:35;30.10;1.00
10304;DHT22;5197;48.152;8.590;2022-08-05T11:32:26;30.20;1.00
10304;DHT22;5197;48.152;8.590;2022-08-05T11:34:55;30.30;1.00
10304;DHT22;5197;48.152;8.590;2022-08-05T11:40:58;30.60;1.00
10304;DHT22;5197;48.152;8.590;2022-08-05T11:44:05;30.70;1.00
10304;DHT22;5197;48.152;8.590;2022-08-05T11:46:51;30.90;1.00
10304;DHT22;5197;48.152;8.590;2022-08-05T11:49:38;30.80;1.00
10304;DHT22;5197;48.152;8.590;2022-08-05T11:52:08;30.80;1.00
10304;DHT22;5197;48.152;8.590;2022-08-05T11:54:38;30.90;1.00
10304;DHT22;5197;48.152;8.590;2022-08-05T11:57:07;31.00;1.00
10304;DHT22;5197;48.152;8.590;2022-08-05T11:59:50;31.30;1.00
10304;DHT22;5197;48.152;8.590;2022-08-05T12:02:22;31.20;1.00
10304;DHT22;5197;48.152;8.590;2022-08-05T12:04:59;31.30;1.00
10304;DHT22;5197;48.152;8.590;2022-08-05T12:07:33;31.30;1.00
10304;DHT22;5197;48.152;8.590;2022-08-05T12:10:21;31.40;1.00
10304;DHT22;5197;48.152;8.590;2022-08-05T12:12:51;31.30;1.00
10304;DHT22;5197;48.152;8.590;2022-08-05T12:15:26;31.20;1.00
10304;DHT22;5197;48.152;8.590;2022-08-05T12:18:04;31.20;1.00
10304;DHT22;5197;48.152;8.590;2022-08-05T12:20:38;31.10;1.00
10304;DHT22;5197;48.152;8.590;2022-08-05T12:23:08;30.90;1.00
10304;DHT22;5197;48.152;8.590;2022-08-05T12:26:07;30.80;1.00
10304;DHT22;5197;48.152;8.590;2022-08-05T12:28:36;30.80;1.00
10304;DHT22;5197;48.152;8.590;2022-08-05T12:31:04;30.70;1.00
10304;DHT22;5197;48.152;8.590;2022-08-05T12:33:32;30.70;1.00
10304;DHT22;5197;48.152;8.590;2022-08-05T12:36:03;30.80;1.00
10304;DHT22;5197;48.152;8.590;2022-08-05T12:38:36;30.90;1.00
10304;DHT22;5197;48.152;8.590;2022-08-05T12:41:13;31.00;1.00
10304;DHT22;5197;48.152;8.590;2022-08-05T12:43:54;31.10;1.00
10304;DHT22;5197;48.152;8.590;2022-08-05T12:46:22;31.20;1.00
10304;DHT22;5197;48.152;8.590;2022-08-05T12:49:04;31.20;1.00
10304;DHT22;5197;48.152;8.590;2022-08-05T12:51:46;31.20;1.00
10304;DHT22;5197;48.152;8.590;2022-08-05T12:54:34;31.20;1.00
10304;DHT22;5197;48.152;8.590;2022-08-05T12:57:04;31.20;1.00
10304;DHT22;5197;48.152;8.590;2022-08-05T13:02:34;31.70;1.00
10304;DHT22;5197;48.152;8.590;2022-08-05T13:05:05;31.70;1.00
10304;DHT22;5197;48.152;8.590;2022-08-05T13:07:33;31.90;1.00
10304;DHT22;5197;48.152;8.590;2022-08-05T13:10:20;32.20;1.00
10304;DHT22;5197;48.152;8.590;2022-08-05T13:12:47;32.30;1.00
10304;DHT22;5197;48.152;8.590;2022-08-05T13:15:29;32.40;1.00
10304;DHT22;5197;48.152;8.590;2022-08-05T13:18:17;32.50;1.00
10304;DHT22;5197;48.152;8.590;2022-08-05T13:20:46;32.40;1.00
10304;DHT22;5197;48.152;8.590;2022-08-05T13:23:15;32.50;1.00
10304;DHT22;5197;48.152;8.590;2022-08-05T13:25:48;32.50;1.00
10304;DHT22;5197;48.152;8.590;2022-08-05T13:28:26;32.60;1.00
10304;DHT22;5197;48.152;8.590;2022-08-05T13:30:53;32.50;1.00
10304;DHT22;5197;48.152;8.590;2022-08-05T13:33:20;32.30;1.00
10304;DHT22;5197;48.152;8.590;2022-08-05T13:36:07;31.90;1.00
10304;DHT22;5197;48.152;8.590;2022-08-05T13:38:35;31.70;1.00
10304;DHT22;5197;48.152;8.590;2022-08-05T13:41:09;31.70;1.00
10304;DHT22;5197;48.152;8.590;2022-08-05T13:43:37;31.60;1.00
10304;DHT22;5197;48.152;8.590;2022-08-05T13:46:24;31.50;1.00
10304;DHT22;5197;48.152;8.590;2022-08-05T13:49:11;31.30;1.00
10304;DHT22;5197;48.152;8.590;2022-08-05T13:51:41;31.30;1.00
10304;DHT22;5197;48.152;8.590;2022-08-05T13:54:12;31.10;1.00
10304;DHT22;5197;48.152;8.590;2022-08-05T13:56:42;30.90;1.00
10304;DHT22;5197;48.152;8.590;2022-08-05T13:59:22;30.50;1.00
10304;DHT22;5197;48.152;8.590;2022-08-05T14:01:52;30.20;1.00
10304;DHT22;5197;48.152;8.590;2022-08-05T14:04:39;29.80;1.00
10304;DHT22;5197;48.152;8.590;2022-08-05T14:07:38;29.50;1.00
10304;DHT22;5197;48.152;8.590;2022-08-05T14:10:25;29.10;1.00
10304;DHT22;5197;48.152;8.590;2022-08-05T14:12:57;28.80;1.00
10304;DHT22;5197;48.152;8.590;2022-08-05T14:15:26;28.50;1.00
10304;DHT22;5197;48.152;8.590;2022-08-05T14:18:13;28.30;1.00
10304;DHT22;5197;48.152;8.590;2022-08-05T14:20:48;28.00;1.00
10304;DHT22;5197;48.152;8.590;2022-08-05T14:23:21;27.90;1.00
10304;DHT22;5197;48.152;8.590;2022-08-05T14:25:55;27.90;1.00
10304;DHT22;5197;48.152;8.590;2022-08-05T14:28:28;27.80;1.00
10304;DHT22;5197;48.152;8.590;2022-08-05T14:30:59;27.70;1.00
10304;DHT22;5197;48.152;8.590;2022-08-05T14:33:27;27.60;1.00
10304;DHT22;5197;48.152;8.590;2022-08-05T14:36:14;27.60;1.00
10304;DHT22;5197;48.152;8.590;2022-08-05T14:38:47;27.50;1.00
10304;DHT22;5197;48.152;8.590;2022-08-05T14:41:14;27.50;1.00
10304;DHT22;5197;48.152;8.590;2022-08-05T14:43:44;27.50;1.00
10304;DHT22;5197;48.152;8.590;2022-08-05T14:46:31;27.50;1.00
10304;DHT22;5197;48.152;8.590;2022-08-05T14:49:02;27.50;1.00
10304;DHT22;5197;48.152;8.590;2022-08-05T14:51:37;27.70;1.00
10304;DHT22;5197;48.152;8.590;2022-08-05T14:54:09;27.70;1.00
10304;DHT22;5197;48.152;8.590;2022-08-05T14:56:56;27.70;1.00
10304;DHT22;5197;48.152;8.590;2022-08-05T14:59:25;27.70;1.00
10304;DHT22;5197;48.152;8.590;2022-08-05T15:02:01;27.70;1.00
10304;DHT22;5197;48.152;8.590;2022-08-05T15:04:28;27.90;1.00
10304;DHT22;5197;48.152;8.590;2022-08-05T15:06:55;28.00;1.00
10304;DHT22;5197;48.152;8.590;2022-08-05T15:09:22;28.00;1.00
10304;DHT22;5197;48.152;8.590;2022-08-05T15:12:09;28.20;1.00
10304;DHT22;5197;48.152;8.590;2022-08-05T15:14:42;28.30;1.00
10304;DHT22;5197;48.152;8.590;2022-08-05T15:17:17;28.50;1.00
10304;DHT22;5197;48.152;8.590;2022-08-05T15:20:05;28.80;1.00
10304;DHT22;5197;48.152;8.590;2022-08-05T15:22:35;28.80;1.00
10304;DHT22;5197;48.152;8.590;2022-08-05T15:25:03;28.80;1.00
10304;DHT22;5197;48.152;8.590;2022-08-05T15:27:39;28.80;1.00
10304;DHT22;5197;48.152;8.590;2022-08-05T15:30:17;28.70;1.00
10304;DHT22;5197;48.152;8.590;2022-08-05T15:32:45;28.60;1.00
10304;DHT22;5197;48.152;8.590;2022-08-05T15:35:12;28.60;1.00
10304;DHT22;5197;48.152;8.590;2022-08-05T15:37:40;28.80;1.00
10304;DHT22;5197;48.152;8.590;2022-08-05T15:40:28;28.80;1.00
10304;DHT22;5197;48.152;8.590;2022-08-05T15:43:15;29.10;1.00
10304;DHT22;5197;48.152;8.590;2022-08-05T15:45:46;29.40;1.00
10304;DHT22;5197;48.152;8.590;2022-08-05T15:48:26;29.40;1.00
10304;DHT22;5197;48.152;8.590;2022-08-05T15:50:54;29.40;1.00
10304;DHT22;5197;48.152;8.590;2022-08-05T15:53:22;29.30;1.00
10304;DHT22;5197;48.152;8.590;2022-08-05T15:55:52;28.80;1.00
10304;DHT22;5197;48.152;8.590;2022-08-05T15:58:31;28.70;1.00
10304;DHT22;5197;48.152;8.590;2022-08-05T16:01:01;28.70;1.00
10304;DHT22;5197;48.152;8.590;2022-08-05T16:03:44;28.80;1.00
10304;DHT22;5197;48.152;8.590;2022-08-05T16:06:17;29.00;1.00
10304;DHT22;5197;48.152;8.590;2022-08-05T16:08:46;29.20;1.00
10304;DHT22;5197;48.152;8.590;2022-08-05T16:11:17;29.40;1.00
10304;DHT22;5197;48.152;8.590;2022-08-05T16:14:04;29.60;1.00
10304;DHT22;5197;48.152;8.590;2022-08-05T16:16:32;29.00;1.00
10304;DHT22;5197;48.152;8.590;2022-08-05T16:19:01;27.00;1.00
10304;DHT22;5197;48.152;8.590;2022-08-05T16:21:29;28.20;1.00
10304;DHT22;5197;48.152;8.590;2022-08-05T16:24:16;28.10;1.00
10304;DHT22;5197;48.152;8.590;2022-08-05T16:27:03;28.20;1.00
10304;DHT22;5197;48.152;8.590;2022-08-05T16:29:33;28.30;1.00
10304;DHT22;5197;48.152;8.590;2022-08-05T16:32:06;28.30;1.00
10304;DHT22;5197;48.152;8.590;2022-08-05T16:34:35;28.40;1.00
10304;DHT22;5197;48.152;8.590;2022-08-05T16:37:05;28.30;1.00
10304;DHT22;5197;48.152;8.590;2022-08-05T16:39:52;27.90;1.00
10304;DHT22;5197;48.152;8.590;2022-08-05T16:42:32;27.40;1.00
10304;DHT22;5197;48.152;8.590;2022-08-05T16:45:00;27.20;1.00
10304;DHT22;5197;48.152;8.590;2022-08-05T16:47:47;27.20;1.00
10304;DHT22;5197;48.152;8.590;2022-08-05T16:50:21;27.30;1.00
10304;DHT22;5197;48.152;8.590;2022-08-05T16:52:48;27.40;1.00
10304;DHT22;5197;48.152;8.590;2022-08-05T16:55:15;27.40;1.00
10304;DHT22;5197;48.152;8.590;2022-08-05T16:57:45;27.30;1.00
10304;DHT22;5197;48.152;8.590;2022-08-05T17:00:25;27.20;1.00
10304;DHT22;5197;48.152;8.590;2022-08-05T17:03:04;27.30;1.00
10304;DHT22;5197;48.152;8.590;2022-08-05T17:05:45;27.20;1.00
10304;DHT22;5197;48.152;8.590;2022-08-05T17:08:19;27.40;1.00
10304;DHT22;5197;48.152;8.590;2022-08-05T17:11:08;27.50;1.00
10304;DHT22;5197;48.152;8.590;2022-08-05T17:13:42;27.70;1.00
10304;DHT22;5197;48.152;8.590;2022-08-05T17:16:09;27.50;1.00
10304;DHT22;5197;48.152;8.590;2022-08-05T17:18:56;27.40;1.00
10304;DHT22;5197;48.152;8.590;2022-08-05T17:21:23;27.00;1.00
10304;DHT22;5197;48.152;8.590;2022-08-05T17:24:01;26.80;1.00
10304;DHT22;5197;48.152;8.590;2022-08-05T17:26:44;26.30;1.00
10304;DHT22;5197;48.152;8.590;2022-08-05T17:29:13;26.10;1.00
10304;DHT22;5197;48.152;8.590;2022-08-05T17:31:40;25.90;1.00
10304;DHT22;5197;48.152;8.590;2022-08-05T17:34:23;25.60;1.00
10304;DHT22;5197;48.152;8.590;2022-08-05T17:36:58;25.60;1.00
10304;DHT22;5197;48.152;8.590;2022-08-05T17:39:26;25.40;1.00
10304;DHT22;5197;48.152;8.590;2022-08-05T17:42:03;25.20;1.00